Time;durP1;ratioP1;P1;durP2;ratioP2;P2;SDS_P1;SDS_P2;PMS_P1;PMS_P2;Temp;Humidity;BMP_temperature;BMP_pressure;BME280_temperature;BME280_humidity;BME280_pressure;Samples;Min_cycle;Max_cycle;Signal;HPM_P1;HPM_P2
2021/06/04 00:00:35;;;;;;;6.38;3.55;;;;;;;14.60;81.35;101027.38;5088775;28;20029;-70
2021/06/04 00:03:07;;;;;;;8.93;3.95;;;;;;;14.57;81.28;101028.84;5056323;28;20044;-70
2021/06/04 00:05:35;;;;;;;7.88;3.20;;;;;;;14.59;81.21;101036.91;5066673;28;20024;-70
2021/06/04 00:08:01;;;;;;;7.88;3.47;;;;;;;14.48;81.67;101023.06;5080701;28;20036;-70
2021/06/04 00:10:33;;;;;;;9.73;3.55;;;;;;;14.42;82.09;101021.50;5087527;28;20504;-70
2021/06/04 00:13:30;;;;;;;8.13;3.20;;;;;;;14.41;81.93;101022.66;5065094;28;20020;-70
2021/06/04 00:16:09;;;;;;;6.50;3.33;;;;;;;14.25;83.12;101016.50;5100084;28;20024;-70
2021/06/04 00:18:35;;;;;;;9.18;3.22;;;;;;;14.23;82.48;101013.19;5048620;28;20499;-70
2021/06/04 00:21:01;;;;;;;11.20;3.47;;;;;;;14.15;83.26;101007.47;5054189;28;20025;-70
2021/06/04 00:23:27;;;;;;;11.02;3.42;;;;;;;14.02;84.19;101014.69;5072429;28;20107;-70
2021/06/04 00:25:52;;;;;;;6.78;3.38;;;;;;;14.01;83.61;101022.25;5082476;28;20152;-70
2021/06/04 00:28:18;;;;;;;7.22;3.20;;;;;;;14.11;82.50;101014.81;5030063;28;20384;-70
2021/06/04 00:30:43;;;;;;;9.77;2.75;;;;;;;14.13;82.85;101015.34;5051558;28;20020;-69
2021/06/04 00:33:09;;;;;;;6.53;3.20;;;;;;;13.95;83.75;101001.09;5049275;28;20040;-69
2021/06/04 00:35:36;;;;;;;10.80;3.50;;;;;;;13.97;83.73;101004.44;5033039;28;20028;-69
2021/06/04 00:38:01;;;;;;;9.10;3.30;;;;;;;13.97;83.73;101004.44;5084738;28;20366;-70
2021/06/04 00:40:29;;;;;;;8.05;2.80;;;;;;;13.96;82.97;101018.72;5084466;28;20056;-69
2021/06/04 00:42:55;;;;;;;10.55;3.58;;;;;;;13.88;84.57;101013.81;5048774;28;20040;-74
2021/06/04 00:45:26;;;;;;;8.50;2.90;;;;;;;13.90;84.08;101009.59;5030548;28;20024;-70
2021/06/04 00:47:52;;;;;;;9.75;3.22;;;;;;;13.78;84.97;101007.25;5064121;28;20024;-70
2021/06/04 00:50:24;;;;;;;6.45;2.60;;;;;;;13.84;84.05;101003.22;5046773;28;20052;-70
2021/06/04 00:52:49;;;;;;;6.47;3.05;;;;;;;13.79;84.18;101005.28;5044157;28;20034;-70
2021/06/04 00:55:17;;;;;;;6.45;2.75;;;;;;;13.77;84.79;101004.78;5083123;28;20032;-70
2021/06/04 00:57:43;;;;;;;7.25;3.10;;;;;;;13.65;85.39;101002.44;5048768;28;20056;-70
2021/06/04 01:00:12;;;;;;;7.68;3.30;;;;;;;13.64;85.60;100997.97;5044388;28;20033;-71
2021/06/04 01:02:38;;;;;;;12.80;3.45;;;;;;;13.64;85.45;100990.44;5078687;28;20104;-70
2021/06/04 01:05:06;;;;;;;7.50;3.83;;;;;;;13.43;87.44;100994.69;5047942;28;20028;-70
2021/06/04 01:08:02;;;;;;;7.18;3.67;;;;;;;13.50;86.51;100989.53;5079319;28;20157;-70
2021/06/04 01:10:34;;;;;;;9.52;3.78;;;;;;;13.47;86.88;100989.31;5080961;28;20033;-71
2021/06/04 01:13:25;;;;;;;9.63;4.28;;;;;;;13.35;87.98;100975.84;5109378;28;20434;-71
2021/06/04 01:16:10;;;;;;;6.85;3.20;;;;;;;13.42;86.40;100987.44;5075009;28;20128;-71
2021/06/04 01:18:51;;;;;;;8.75;3.60;;;;;;;13.46;86.53;100984.88;5098427;28;20389;-71
2021/06/04 01:21:34;;;;;;;9.13;3.65;;;;;;;13.46;86.09;100987.69;5079104;28;20052;-71
2021/06/04 01:24:20;;;;;;;9.77;4.05;;;;;;;13.48;85.80;100974.22;5067516;28;20028;-71
2021/06/04 01:26:49;;;;;;;9.10;3.88;;;;;;;13.40;87.18;100989.72;5085959;28;20032;-71
2021/06/04 01:29:22;;;;;;;6.90;2.80;;;;;;;13.50;85.56;100983.13;5071468;28;20117;-71
2021/06/04 01:31:52;;;;;;;7.82;3.17;;;;;;;13.49;86.23;100982.31;5080742;28;20484;-71
2021/06/04 01:34:31;;;;;;;10.77;4.40;;;;;;;13.49;86.18;100978.69;5078731;28;20048;-70
2021/06/04 01:37:03;;;;;;;12.30;4.40;;;;;;;13.34;87.85;100986.13;5075823;28;20032;-70
2021/06/04 01:39:31;;;;;;;10.07;4.32;;;;;;;13.31;88.36;100977.56;5091619;28;20040;-71
2021/06/04 01:41:56;;;;;;;9.55;5.00;;;;;;;13.26;89.17;100978.47;5064290;28;20519;-71
2021/06/04 01:44:33;;;;;;;7.43;4.10;;;;;;;13.27;88.37;100977.34;5058092;28;20032;-71
2021/06/04 01:47:02;;;;;;;9.20;4.70;;;;;;;13.17;89.50;100978.25;5065699;28;20038;-71
2021/06/04 01:49:31;;;;;;;9.52;4.57;;;;;;;13.16;88.64;100996.13;5096562;28;20035;-71
2021/06/04 01:52:07;;;;;;;10.63;5.30;;;;;;;13.19;89.44;100994.72;5068727;28;20029;-71
2021/06/04 01:54:41;;;;;;;10.20;5.22;;;;;;;13.11;89.89;100993.41;5049002;28;20377;-71
2021/06/04 01:57:10;;;;;;;9.90;5.10;;;;;;;13.16;89.44;101001.72;5079363;28;20042;-71
2021/06/04 01:59:37;;;;;;;12.20;4.95;;;;;;;13.16;89.32;101001.72;5062470;28;20027;-71
2021/06/04 02:02:02;;;;;;;9.85;3.80;;;;;;;13.27;87.55;100996.84;5064111;28;20028;-71
2021/06/04 02:04:35;;;;;;;;;;;;;;;13.25;87.75;100999.06;5078030;28;20035;-70
2021/06/04 02:07:03;;;;;;;7.07;4.40;;;;;;;13.30;87.74;101001.00;5064090;28;19931;-70
2021/06/04 02:09:28;;;;;;;8.05;4.10;;;;;;;13.25;87.64;101001.03;5060457;28;20035;-71
2021/06/04 02:11:55;;;;;;;8.43;4.32;;;;;;;13.34;87.26;101002.88;5087198;28;20031;-71
2021/06/04 02:14:24;;;;;;;9.88;5.15;;;;;;;13.22;88.94;101002.47;5098782;28;20032;-70
2021/06/04 02:16:54;;;;;;;9.35;4.05;;;;;;;13.27;87.20;101013.59;5079045;28;20161;-71
2021/06/04 02:19:44;;;;;;;8.93;5.00;;;;;;;13.16;88.88;101004.50;5048798;28;20057;-71
2021/06/04 02:22:29;;;;;;;8.57;4.90;;;;;;;13.18;88.55;101013.41;5065275;28;20051;-70
2021/06/04 02:25:01;;;;;;;8.05;4.30;;;;;;;13.21;87.70;101011.97;5075772;28;20051;-70
2021/06/04 02:27:33;;;;;;;8.93;4.10;;;;;;;13.32;86.83;101021.91;5098936;28;20040;-70
2021/06/04 02:30:20;;;;;;;6.97;3.63;;;;;;;13.38;86.61;101014.28;5080539;28;20555;-70
2021/06/04 02:32:48;;;;;;;6.47;3.67;;;;;;;13.38;86.55;101017.91;5071482;28;20035;-70
2021/06/04 02:35:23;;;;;;;7.57;4.07;;;;;;;13.43;86.43;101007.78;5080973;28;20361;-70
2021/06/04 02:37:56;;;;;;;7.53;4.53;;;;;;;13.39;86.75;101004.78;5062514;28;20031;-70
2021/06/04 02:40:34;;;;;;;8.85;5.20;;;;;;;13.27;88.87;101001.63;5050828;28;20044;-70
2021/06/04 02:43:13;;;;;;;7.25;4.25;;;;;;;13.33;88.07;101005.97;5076942;28;20102;-70
2021/06/04 02:45:42;;;;;;;6.53;4.00;;;;;;;13.30;88.09;101006.59;5071973;28;20028;-71
2021/06/04 02:48:11;;;;;;;6.95;3.85;;;;;;;13.31;87.14;101005.44;5064644;28;20364;-71
2021/06/04 02:50:50;;;;;;;8.25;4.75;;;;;;;13.13;89.79;100999.53;5079366;28;20138;-71
2021/06/04 02:53:27;;;;;;;8.50;4.63;;;;;;;13.19;88.88;101001.09;5059059;28;20547;-71
2021/06/04 02:56:07;;;;;;;8.55;5.00;;;;;;;13.07;90.39;100997.94;5076548;28;20399;-71
2021/06/04 02:58:33;;;;;;;7.45;4.55;;;;;;;13.04;89.69;100994.91;5084242;28;20093;-71
2021/06/04 03:00:58;;;;;;;10.27;6.20;;;;;;;12.99;91.30;101004.19;5035735;28;20031;-71
2021/06/04 03:03:24;;;;;;;9.80;6.10;;;;;;;12.86;91.62;100999.31;5054272;28;20031;-71
2021/06/04 03:05:49;;;;;;;6.82;5.15;;;;;;;12.91;90.32;100993.69;5092117;28;20028;-71
2021/06/04 03:08:16;;;;;;;10.45;6.68;;;;;;;12.86;91.29;100990.97;5085627;28;20381;-71
2021/06/04 03:10:44;;;;;;;11.05;5.93;;;;;;;12.79;91.78;100991.31;5067545;28;20031;-71
2021/06/04 03:13:15;;;;;;;8.45;5.18;;;;;;;12.83;90.45;100986.81;5062203;28;20062;-71
2021/06/04 03:15:48;;;;;;;11.15;6.47;;;;;;;12.70;92.52;100988.38;5056894;28;20092;-71
2021/06/04 03:18:22;;;;;;;8.40;5.60;;;;;;;12.69;92.45;100989.47;5086060;28;20032;-71
2021/06/04 03:20:48;;;;;;;9.52;5.38;;;;;;;12.73;91.20;100982.19;5068389;28;20101;-71
2021/06/04 03:23:18;;;;;;;6.57;4.30;;;;;;;12.78;91.34;100994.41;5089909;28;20024;-71
2021/06/04 03:25:45;;;;;;;4.60;3.42;;;;;;;12.90;89.17;100995.66;5062366;28;20507;-71
2021/06/04 03:28:15;;;;;;;3.58;2.20;;;;;;;12.83;90.41;100988.75;5100867;28;20028;-71
2021/06/04 03:30:42;;;;;;;2.55;1.67;;;;;;;12.86;89.86;100999.31;5070372;28;20057;-71
2021/06/04 03:33:08;;;;;;;2.28;1.40;;;;;;;12.89;89.28;100995.94;5053452;28;20036;-71
2021/06/04 03:35:33;;;;;;;3.22;1.30;;;;;;;12.94;88.22;100998.66;5037784;28;20085;-71
2021/06/04 03:37:59;;;;;;;2.33;1.10;;;;;;;12.85;89.41;100994.88;5050970;28;20105;-71
2021/06/04 03:40:27;;;;;;;1.52;1.00;;;;;;;12.86;88.94;100996.53;5045801;28;20051;-71
2021/06/04 03:42:54;;;;;;;1.73;0.82;;;;;;;12.89;88.89;100995.94;5082773;28;20209;-71
2021/06/04 03:45:22;;;;;;;1.70;1.00;;;;;;;12.79;89.13;100991.31;5073898;28;20484;-71
2021/06/04 03:47:47;;;;;;;2.28;1.42;;;;;;;12.75;89.51;100996.66;5069226;28;20020;-71
2021/06/04 03:50:13;;;;;;;3.33;1.65;;;;;;;12.70;89.24;101001.44;5056297;28;20039;-71
2021/06/04 03:52:39;;;;;;;3.35;1.50;;;;;;;12.67;89.27;101004.84;5065040;28;20049;-71
2021/06/04 03:55:08;;;;;;;3.05;1.40;;;;;;;12.70;88.80;100995.88;5057422;28;20032;-71
2021/06/04 03:57:34;;;;;;;5.22;2.05;;;;;;;12.56;89.69;101003.28;5082159;28;20031;-71
2021/06/04 04:00:00;;;;;;;4.55;2.20;;;;;;;12.48;89.76;101001.97;5101512;28;20497;-71
2021/06/04 04:02:27;;;;;;;4.72;2.03;;;;;;;12.39;89.97;101003.75;5057535;28;20030;-71
2021/06/04 04:04:56;;;;;;;8.20;2.28;;;;;;;12.50;88.83;101011.69;5050274;28;20035;-70
2021/06/04 04:07:23;;;;;;;4.38;2.00;;;;;;;12.44;88.98;101004.53;5051508;28;20380;-71
2021/06/04 04:09:48;;;;;;;9.80;2.30;;;;;;;12.26;90.29;101011.69;5099819;28;20028;-71
2021/06/04 04:12:14;;;;;;;4.80;1.95;;;;;;;12.45;88.62;101016.50;5080719;28;20037;-71
2021/06/04 04:14:39;;;;;;;5.30;2.10;;;;;;;12.47;88.14;101015.06;5058828;28;20036;-71
2021/06/04 04:17:05;;;;;;;7.68;2.03;;;;;;;12.42;88.13;101012.34;5102280;28;20081;-71
2021/06/04 04:19:31;;;;;;;5.47;1.80;;;;;;;12.35;88.49;101008.25;5067209;28;20033;-71
2021/06/04 04:21:57;;;;;;;7.05;1.90;;;;;;;12.33;88.29;101011.31;5061829;28;20029;-71
2021/06/04 04:24:30;;;;;;;4.93;2.13;;;;;;;12.22;88.66;101006.97;5066039;28;20033;-71
2021/06/04 04:26:56;;;;;;;5.95;2.10;;;;;;;12.06;88.91;101009.91;5078997;28;20113;-71
2021/06/04 04:29:22;;;;;;;4.20;2.30;;;;;;;12.00;89.06;101008.28;5065674;28;20491;-71
2021/06/04 04:31:49;;;;;;;3.38;1.88;;;;;;;12.03;88.87;101015.22;5084946;28;20031;-71
2021/06/04 04:34:15;;;;;;;4.03;1.85;;;;;;;12.01;88.96;101015.53;5062500;28;20024;-71
2021/06/04 04:36:43;;;;;;;3.03;1.50;;;;;;;11.90;89.00;101018.69;5063481;28;20040;-70
2021/06/04 04:39:10;;;;;;;4.47;1.88;;;;;;;11.82;89.34;101017.31;5077145;28;20075;-70
2021/06/04 04:41:36;;;;;;;4.97;1.48;;;;;;;11.88;88.76;101021.75;5073953;28;20028;-70
2021/06/04 04:44:02;;;;;;;4.32;1.70;;;;;;;11.94;88.19;101022.53;5068633;28;20080;-71
2021/06/04 04:46:28;;;;;;;4.07;1.90;;;;;;;11.86;88.52;101023.97;5079852;28;20031;-71
2021/06/04 04:48:54;;;;;;;4.15;1.40;;;;;;;11.96;87.84;101029.47;5058189;28;20477;-71
2021/06/04 04:51:19;;;;;;;3.60;1.50;;;;;;;11.98;87.60;101031.94;5060328;28;20028;-71
2021/06/04 04:53:45;;;;;;;4.45;1.88;;;;;;;11.92;87.72;101035.91;5062710;28;20059;-70
2021/06/04 04:56:11;;;;;;;4.60;1.40;;;;;;;11.85;87.82;101036.22;5083427;28;20483;-70
2021/06/04 04:58:36;;;;;;;3.88;1.50;;;;;;;11.94;87.15;101034.50;5097556;28;20024;-71
2021/06/04 05:01:04;;;;;;;5.55;2.00;;;;;;;11.70;88.19;101039.09;5073792;28;20032;-71
2021/06/04 05:03:29;;;;;;;4.20;1.50;;;;;;;11.77;87.82;101034.88;5045050;28;20028;-71
2021/06/04 05:05:55;;;;;;;1.83;1.17;;;;;;;11.81;87.58;101037.91;5082435;28;20031;-71
2021/06/04 05:08:21;;;;;;;1.67;1.35;;;;;;;11.70;87.99;101041.88;5032177;28;20039;-71
2021/06/04 05:10:47;;;;;;;4.68;1.52;;;;;;;11.67;88.24;101048.84;5080541;28;20508;-71
2021/06/04 05:13:13;;;;;;;4.43;1.38;;;;;;;11.75;87.41;101051.00;5084383;28;20042;-71
2021/06/04 05:15:39;;;;;;;2.72;1.10;;;;;;;11.78;87.46;101052.41;5066361;28;20024;-71
2021/06/04 05:18:05;;;;;;;2.80;1.27;;;;;;;11.87;86.64;101056.28;5063982;28;20039;-71
2021/06/04 05:20:31;;;;;;;2.42;1.00;;;;;;;11.92;86.38;101061.78;5089417;28;20037;-71
2021/06/04 05:22:57;;;;;;;4.30;1.50;;;;;;;11.98;86.10;101070.94;5086603;28;20037;-71
2021/06/04 05:25:29;;;;;;;4.05;1.10;;;;;;;12.04;85.58;101070.63;5080368;28;20024;-71
2021/06/04 05:27:55;;;;;;;2.75;0.77;;;;;;;12.08;85.47;101076.41;5064336;28;20015;-71
2021/06/04 05:30:29;;;;;;;3.50;1.00;;;;;;;12.11;85.41;101077.78;5063145;28;20032;-71
2021/06/04 05:32:54;;;;;;;1.75;1.08;;;;;;;12.16;84.97;101078.59;5097555;28;20103;-71
2021/06/04 05:35:20;;;;;;;3.65;1.42;;;;;;;11.94;85.91;101076.25;5046989;28;20048;-71
2021/06/04 05:37:45;;;;;;;3.70;1.50;;;;;;;12.04;85.67;101072.56;5082211;28;20032;-71
2021/06/04 05:40:14;;;;;;;3.30;1.02;;;;;;;12.11;85.08;101075.84;5037438;28;20087;-71
2021/06/04 05:42:39;;;;;;;1.70;0.93;;;;;;;12.17;84.54;101074.66;5039807;28;20028;-71
2021/06/04 05:45:06;;;;;;;1.73;1.00;;;;;;;12.17;84.72;101082.19;5020885;28;20097;-71
2021/06/04 05:47:32;;;;;;;2.20;0.98;;;;;;;12.19;84.68;101077.19;5021910;28;20053;-71
2021/06/04 05:49:57;;;;;;;2.72;0.90;;;;;;;12.22;84.34;101071.84;5022831;28;20520;-71
2021/06/04 05:52:23;;;;;;;4.95;1.20;;;;;;;12.23;85.11;101078.25;5053387;28;20388;-77
2021/06/04 05:54:49;;;;;;;1.63;1.20;;;;;;;12.33;85.59;101064.25;5038915;28;20056;-77
2021/06/04 05:57:14;;;;;;;2.50;1.00;;;;;;;12.58;85.99;101068.72;5017236;28;20040;-77
2021/06/04 05:59:40;;;;;;;3.20;1.15;;;;;;;12.60;85.72;101077.63;5036950;28;20040;-77
2021/06/04 06:02:06;;;;;;;2.45;1.42;;;;;;;12.77;84.73;101073.56;4997063;28;20398;-76
2021/06/04 06:04:31;;;;;;;4.10;1.50;;;;;;;12.77;84.31;101081.94;5051806;28;20028;-76
2021/06/04 06:06:57;;;;;;;2.17;1.20;;;;;;;12.83;83.65;101086.31;5053828;28;20482;-77
2021/06/04 06:09:23;;;;;;;3.72;1.23;;;;;;;12.87;83.72;101090.16;5063446;28;20037;-76
2021/06/04 06:11:48;;;;;;;2.65;1.38;;;;;;;12.89;83.52;101090.72;5055397;28;20532;-76
2021/06/04 06:14:15;;;;;;;3.58;1.05;;;;;;;12.97;83.02;101084.50;5055563;28;20029;-77
2021/06/04 06:16:41;;;;;;;4.35;1.75;;;;;;;13.00;82.86;101095.03;5035188;28;20436;-77
2021/06/04 06:19:07;;;;;;;3.30;1.13;;;;;;;13.04;82.49;101098.91;5005586;28;20028;-73
2021/06/04 06:21:32;;;;;;;2.25;0.95;;;;;;;13.07;82.13;101103.06;5053936;28;20059;-78
2021/06/04 06:23:58;;;;;;;3.20;1.00;;;;;;;13.02;82.21;101100.34;5053275;28;20115;-78
2021/06/04 06:26:28;;;;;;;2.13;0.90;;;;;;;12.89;82.09;101091.53;5022599;28;20041;-79
2021/06/04 06:28:54;;;;;;;3.47;1.08;;;;;;;12.71;82.76;101090.34;5050357;28;20095;-78
2021/06/04 06:31:23;;;;;;;3.97;1.10;;;;;;;12.45;83.37;101091.69;5054409;28;20028;-79
2021/06/04 06:33:50;;;;;;;3.75;1.02;;;;;;;12.50;83.38;101088.88;5053617;28;20029;-74
2021/06/04 06:36:19;;;;;;;4.20;1.27;;;;;;;12.50;83.61;101100.00;5051486;28;20040;-69
2021/06/04 06:38:46;;;;;;;2.88;1.13;;;;;;;12.55;83.23;101097.19;5064884;28;20396;-69
2021/06/04 06:41:12;;;;;;;3.50;1.23;;;;;;;12.46;83.33;101082.25;5080423;28;20106;-70
2021/06/04 06:43:38;;;;;;;4.50;0.98;;;;;;;12.39;84.13;101077.00;5060983;28;20036;-69
2021/06/04 06:46:04;;;;;;;3.15;1.00;;;;;;;12.20;85.12;101076.03;5082185;28;20489;-69
2021/06/04 06:48:30;;;;;;;3.42;1.38;;;;;;;12.13;85.75;101079.16;5063880;28;20023;-70
2021/06/04 06:50:55;;;;;;;4.85;1.70;;;;;;;12.21;85.34;101081.34;5106393;28;20024;-70
2021/06/04 06:53:22;;;;;;;2.60;1.30;;;;;;;12.15;85.74;101087.25;5065284;28;20047;-70
2021/06/04 06:55:48;;;;;;;4.28;1.67;;;;;;;12.13;86.18;101083.91;5046252;28;20036;-70
2021/06/04 06:58:14;;;;;;;3.47;1.33;;;;;;;12.08;86.94;101093.13;5047532;28;20043;-70
2021/06/04 07:00:42;;;;;;;5.20;1.65;;;;;;;12.14;86.26;101094.75;5053478;28;20035;-70
2021/06/04 07:03:07;;;;;;;5.22;2.00;;;;;;;12.30;85.13;101101.84;5081525;28;20028;-70
2021/06/04 07:05:34;;;;;;;4.05;1.95;;;;;;;12.34;84.89;101112.41;5046933;28;20037;-70
2021/06/04 07:08:00;;;;;;;3.58;1.58;;;;;;;12.45;84.30;101116.78;5061290;28;20487;-70
2021/06/04 07:10:28;;;;;;;4.18;1.77;;;;;;;12.51;84.35;101121.19;5084891;28;20055;-71
2021/06/04 07:12:57;;;;;;;4.90;1.80;;;;;;;12.52;84.95;101114.50;5095592;28;20419;-70
2021/06/04 07:15:28;;;;;;;4.13;1.70;;;;;;;12.51;84.61;101112.84;5087293;28;20024;-70
2021/06/04 07:17:57;;;;;;;3.53;1.60;;;;;;;12.61;84.42;101118.31;5080277;28;20035;-70
2021/06/04 07:20:23;;;;;;;4.35;1.67;;;;;;;12.67;83.87;101125.47;5044733;28;20040;-70
2021/06/04 07:22:53;;;;;;;3.22;1.30;;;;;;;12.67;84.21;101114.34;5062569;28;20388;-70
2021/06/04 07:25:18;;;;;;;4.45;1.20;;;;;;;12.69;84.54;101120.47;5101115;28;20031;-70
2021/06/04 07:27:45;;;;;;;2.58;1.27;;;;;;;12.76;84.10;101128.50;5062903;28;20043;-70
2021/06/04 07:30:11;;;;;;;4.65;1.83;;;;;;;12.78;84.19;101136.53;5065883;28;20474;-70
2021/06/04 07:32:40;;;;;;;4.50;1.50;;;;;;;12.82;84.23;101140.41;5084215;28;20433;-70
2021/06/04 07:35:07;;;;;;;7.00;1.50;;;;;;;12.86;83.83;101138.69;5081325;28;20590;-70
2021/06/04 07:37:33;;;;;;;5.68;1.58;;;;;;;12.95;83.66;101134.13;5101490;28;20108;-70
2021/06/04 07:39:58;;;;;;;5.90;1.70;;;;;;;13.07;83.77;101136.53;5042023;28;20079;-70
2021/06/04 07:42:24;;;;;;;3.33;1.35;;;;;;;13.12;83.35;101139.25;5032281;28;20025;-70
2021/06/04 07:44:49;;;;;;;2.35;1.20;;;;;;;13.26;83.01;101144.97;5055721;28;20021;-71
2021/06/04 07:47:15;;;;;;;2.47;1.42;;;;;;;13.39;82.58;101149.84;5040619;28;20500;-70
2021/06/04 07:49:41;;;;;;;6.18;1.40;;;;;;;13.45;82.91;101143.06;5053441;28;20030;-71
2021/06/04 07:52:07;;;;;;;3.05;1.10;;;;;;;13.66;82.24;101157.59;5057899;28;20033;-70
2021/06/04 07:54:33;;;;;;;2.35;0.90;;;;;;;13.77;81.07;101150.75;5052386;28;20069;-70
2021/06/04 07:56:59;;;;;;;5.28;1.38;;;;;;;13.93;80.77;101151.38;5023575;28;20044;-70
2021/06/04 07:59:25;;;;;;;3.53;1.13;;;;;;;14.07;80.87;101154.25;5053766;28;20029;-70
2021/06/04 08:01:51;;;;;;;4.97;1.58;;;;;;;14.21;80.47;101155.16;5035255;28;20025;-70
2021/06/04 08:04:16;;;;;;;6.03;1.75;;;;;;;14.44;80.47;101161.78;5033554;28;20037;-71
2021/06/04 08:06:42;;;;;;;3.70;1.45;;;;;;;14.68;78.92;101172.88;5007795;28;20064;-70
2021/06/04 08:09:09;;;;;;;3.97;1.33;;;;;;;14.83;79.04;101166.19;5023006;28;20033;-71
2021/06/04 08:11:38;;;;;;;3.08;1.13;;;;;;;15.05;77.94;101150.69;5075073;28;20421;-71
2021/06/04 08:14:11;;;;;;;3.72;1.13;;;;;;;15.34;77.41;101165.22;5023359;28;20037;-70
2021/06/04 08:16:38;;;;;;;3.97;1.30;;;;;;;15.57;77.02;101160.56;5029789;28;20148;-71
2021/06/04 08:19:04;;;;;;;3.50;1.20;;;;;;;15.74;76.35;101168.34;5013808;28;20083;-70
2021/06/04 08:21:37;;;;;;;6.13;1.30;;;;;;;15.89;75.76;101163.56;5021893;28;20036;-71
2021/06/04 08:24:04;;;;;;;4.18;1.20;;;;;;;16.09;75.50;101160.28;5024723;28;20036;-71
2021/06/04 08:26:33;;;;;;;3.10;1.25;;;;;;;16.26;74.61;101162.41;5022982;28;20469;-71
2021/06/04 08:29:00;;;;;;;2.65;1.20;;;;;;;16.28;73.81;101154.53;5006498;28;20033;-70
2021/06/04 08:31:26;;;;;;;6.82;1.42;;;;;;;16.37;74.07;101163.00;5004449;28;20029;-71
2021/06/04 08:33:51;;;;;;;7.97;1.60;;;;;;;16.42;73.90;101160.91;5032857;28;20029;-71
2021/06/04 08:36:23;;;;;;;5.38;1.42;;;;;;;16.46;74.09;101161.91;5023552;28;20025;-71
2021/06/04 08:38:49;;;;;;;6.07;1.50;;;;;;;16.51;73.26;101158.16;5050049;28;20060;-71
2021/06/04 08:41:26;;;;;;;6.20;1.70;;;;;;;16.49;73.62;101152.03;5044122;28;20452;-71
2021/06/04 08:44:01;;;;;;;7.25;1.75;;;;;;;16.45;73.85;101151.03;5056688;28;20060;-70
2021/06/04 08:46:30;;;;;;;5.72;1.40;;;;;;;16.54;73.69;101149.94;5059031;28;20035;-71
2021/06/04 08:49:03;;;;;;;8.20;1.95;;;;;;;16.53;73.73;101153.06;5043945;28;20087;-71
2021/06/04 08:51:33;;;;;;;6.07;2.00;;;;;;;16.58;73.99;101168.94;5022565;28;20032;-71
2021/06/04 08:54:06;;;;;;;4.05;1.70;;;;;;;16.73;73.67;101180.59;5052140;28;20048;-71
2021/06/04 08:57:03;;;;;;;4.95;2.10;;;;;;;16.82;73.90;101191.06;5047670;28;20056;-71
2021/06/04 08:59:29;;;;;;;5.60;1.90;;;;;;;16.92;73.21;101190.81;5021306;28;20075;-71
2021/06/04 09:02:00;;;;;;;6.40;2.20;;;;;;;16.94;72.79;101188.53;5035389;28;20502;-72
2021/06/04 09:04:45;;;;;;;9.48;2.20;;;;;;;16.98;73.15;101178.31;5039808;28;20040;-72
2021/06/04 09:07:20;;;;;;;5.95;2.10;;;;;;;17.07;72.46;101189.56;5054503;28;20033;-72
2021/06/04 09:10:04;;;;;;;7.25;2.70;;;;;;;16.98;72.04;101190.34;5021432;28;20067;-72
2021/06/04 09:12:47;;;;;;;8.93;2.72;;;;;;;17.06;72.21;101205.59;5042027;28;20033;-72
2021/06/04 09:15:14;;;;;;;6.43;2.20;;;;;;;17.13;72.21;101194.75;5037674;28;20037;-72
2021/06/04 09:18:04;;;;;;;8.75;2.20;;;;;;;17.08;71.86;101194.88;5045424;28;20079;-72
2021/06/04 09:20:52;;;;;;;6.45;1.90;;;;;;;17.19;72.33;101185.03;5040316;28;20042;-72
2021/06/04 09:23:25;;;;;;;6.25;2.03;;;;;;;17.29;72.00;101183.09;5012602;28;20029;-72
2021/06/04 09:25:51;;;;;;;9.18;2.53;;;;;;;17.36;72.10;101191.88;5020513;28;20473;-72
2021/06/04 09:28:20;;;;;;;3.20;1.42;;;;;;;17.42;71.65;101185.78;5022800;28;20052;-72
2021/06/04 09:31:16;;;;;;;5.15;2.03;;;;;;;17.40;71.86;101184.44;5017896;28;20024;-72
2021/06/04 09:33:48;;;;;;;7.45;2.20;;;;;;;17.52;71.59;101181.84;5040833;28;20509;-72
2021/06/04 09:36:20;;;;;;;7.78;1.95;;;;;;;17.49;71.25;101174.06;5007397;28;20480;-73
2021/06/04 09:38:53;;;;;;;5.68;1.80;;;;;;;17.59;71.33;101173.78;5027810;28;20043;-73
2021/06/04 09:41:25;;;;;;;7.57;2.20;;;;;;;17.63;70.93;101177.63;5046334;28;20037;-72
2021/06/04 09:44:12;;;;;;;5.10;2.03;;;;;;;17.73;71.31;101179.28;5085175;28;20040;-72
2021/06/04 09:46:41;;;;;;;8.95;1.90;;;;;;;17.75;71.30;101179.78;5094754;28;20050;-72
2021/06/04 09:49:07;;;;;;;7.65;1.90;;;;;;;17.77;70.54;101177.47;5044363;28;20036;-72
2021/06/04 09:51:38;;;;;;;9.80;2.30;;;;;;;17.61;69.90;101190.31;5070190;28;20118;-72
2021/06/04 09:54:28;;;;;;;4.85;1.80;;;;;;;17.75;70.02;101176.97;5081644;28;20067;-71
2021/06/04 09:57:08;;;;;;;9.45;2.22;;;;;;;17.79;70.17;101175.19;5073348;28;20050;-72
2021/06/04 09:59:34;;;;;;;8.13;2.40;;;;;;;17.88;69.91;101192.06;5048721;28;20036;-71
2021/06/04 10:02:00;;;;;;;6.68;1.90;;;;;;;17.93;69.53;101179.84;5050370;28;20091;-71
2021/06/04 10:04:30;;;;;;;8.00;1.80;;;;;;;17.91;69.51;101188.59;5071289;28;20024;-72
2021/06/04 10:07:16;;;;;;;5.78;1.63;;;;;;;18.00;68.68;101186.66;5065267;28;20110;-72
2021/06/04 10:09:43;;;;;;;7.82;1.77;;;;;;;18.15;68.89;101202.22;5064502;28;20490;-72
2021/06/04 10:12:17;;;;;;;9.73;1.80;;;;;;;18.21;68.02;101200.88;5062772;28;20044;-72
2021/06/04 10:14:56;;;;;;;8.48;1.90;;;;;;;18.34;68.18;101201.91;5080721;28;20111;-72
2021/06/04 10:19:57;;;;;;;4.95;1.75;;;;;;;18.61;68.05;101205.53;5054246;28;20024;-71
2021/06/04 10:22:25;;;;;;;5.35;1.75;;;;;;;18.73;67.98;101202.88;5076387;28;20044;-71
2021/06/04 10:25:01;;;;;;;9.15;2.10;;;;;;;18.87;67.27;101202.75;5083965;28;20027;-70
2021/06/04 10:27:32;;;;;;;9.38;1.92;;;;;;;19.08;66.69;101197.22;5051077;28;20030;-71
2021/06/04 10:29:59;;;;;;;7.07;1.70;;;;;;;19.22;66.28;101205.47;5077389;28;20073;-71
2021/06/04 10:32:30;;;;;;;6.57;1.75;;;;;;;19.37;65.29;101210.56;5065041;28;20035;-71
2021/06/04 10:35:32;;;;;;;10.15;2.38;;;;;;;19.55;64.68;101202.84;5094735;28;20056;-71
2021/06/04 10:38:03;;;;;;;7.05;1.73;;;;;;;19.68;64.08;101210.28;5064281;28;20039;-71
2021/06/04 10:40:35;;;;;;;6.50;1.40;;;;;;;19.85;64.33;101217.81;5089499;28;20104;-71
2021/06/04 10:43:38;;;;;;;5.65;1.55;;;;;;;20.00;63.41;101205.13;5078317;28;20504;-72
2021/06/04 10:46:06;;;;;;;6.90;1.65;;;;;;;20.11;63.16;101206.38;5090298;28;20032;-73
2021/06/04 10:48:42;;;;;;;4.13;1.50;;;;;;;20.15;62.83;101206.53;5084190;28;20470;-73
2021/06/04 10:51:31;;;;;;;7.82;1.45;;;;;;;20.08;61.07;101207.88;5033579;28;20024;-73
2021/06/04 10:54:03;;;;;;;5.13;1.27;;;;;;;19.99;61.36;101206.31;5078752;28;20067;-73
2021/06/04 10:56:33;;;;;;;5.90;1.63;;;;;;;20.13;62.08;101208.88;5046747;28;20064;-73
2021/06/04 10:59:15;;;;;;;7.47;2.10;;;;;;;20.20;62.93;101214.81;5044747;28;20509;-73
2021/06/04 11:01:49;;;;;;;11.32;2.28;;;;;;;20.25;63.00;101214.59;5061683;28;20423;-74
2021/06/04 11:04:39;;;;;;;7.65;2.30;;;;;;;20.38;62.73;101215.50;5096451;28;20119;-73
2021/06/04 11:07:31;;;;;;;4.70;1.65;;;;;;;20.49;62.42;101216.72;5057821;28;20146;-73
2021/06/04 11:10:05;;;;;;;7.13;2.05;;;;;;;20.56;62.11;101219.88;5085532;28;20059;-73
2021/06/04 11:12:56;;;;;;;8.88;1.80;;;;;;;20.63;61.99;101211.66;5052817;28;20043;-73
2021/06/04 11:15:30;;;;;;;5.22;1.60;;;;;;;20.71;61.66;101219.22;5079931;28;20143;-73
2021/06/04 11:18:02;;;;;;;7.85;1.60;;;;;;;20.77;61.44;101205.72;5067436;28;20029;-73
2021/06/04 11:20:39;;;;;;;8.65;1.90;;;;;;;20.81;61.08;101209.53;5069519;28;20072;-73
2021/06/04 11:23:27;;;;;;;4.90;1.65;;;;;;;20.92;60.83;101204.25;5065909;28;20031;-73
2021/06/04 11:25:58;;;;;;;7.25;1.80;;;;;;;20.91;60.21;101209.06;5069541;28;20399;-73
2021/06/04 11:28:44;;;;;;;7.43;1.90;;;;;;;20.94;60.58;101214.00;5087468;28;20039;-73
2021/06/04 11:31:20;;;;;;;4.68;1.42;;;;;;;21.05;60.22;101219.25;5084783;28;20060;-73
2021/06/04 11:33:49;;;;;;;5.00;1.75;;;;;;;21.10;59.78;101231.13;5083572;28;20040;-73
2021/06/04 11:36:21;;;;;;;5.20;1.30;;;;;;;21.15;59.12;101232.94;5084920;28;20532;-73
2021/06/04 11:38:53;;;;;;;;;;;;;;;21.15;58.91;101227.28;5066837;28;20405;-73
2021/06/04 11:41:32;;;;;;;4.55;1.30;;;;;;;21.16;58.72;101223.28;5069987;28;19912;-73